Time;durP1;ratioP1;P1;durP2;ratioP2;P2;SDS_P1;SDS_P2;PMS_P1;PMS_P2;Temp;Humidity;BMP_temperature;BMP_pressure;BME280_temperature;BME280_humidity;BME280_pressure;Samples;Min_cycle;Max_cycle;Signal;HPM_P1;HPM_P2
2022/01/03 00:01:22;;;;;;;144.03;73.03;;;;;;;;;;4403752;32;20268;-53
2022/01/03 00:03:48;;;;;;;144.87;75.00;;;;;;;;;;4404902;32;20296;-54
2022/01/03 00:06:14;;;;;;;166.83;80.83;;;;;;;;;;4405274;32;20316;-52
2022/01/03 00:08:44;;;;;;;149.90;82.03;;;;;;;;;;4404743;32;20636;-53
2022/01/03 00:11:15;;;;;;;143.00;79.00;;;;;;;;;;4404014;32;20308;-53
2022/01/03 00:13:46;;;;;;;123.13;66.67;;;;;;;;;;4405004;32;20276;-52
2022/01/03 00:16:12;;;;;;;144.20;71.77;;;;;;;;;;4399203;32;20309;-52
2022/01/03 00:18:38;;;;;;;130.27;66.30;;;;;;;;;;4396821;32;20496;-52
2022/01/03 00:21:10;;;;;;;133.00;68.40;;;;;;;;;;4397054;32;20335;-52
2022/01/03 00:23:37;;;;;;;136.20;69.63;;;;;;;;;;4395506;32;20699;-53
2022/01/03 00:26:03;;;;;;;119.37;59.00;;;;;;;;;;4397634;32;20374;-52
2022/01/03 00:28:35;;;;;;;132.80;62.53;;;;;;;;;;4397942;32;20233;-51
2022/01/03 00:31:02;;;;;;;119.90;61.23;;;;;;;;;;4397010;32;20267;-52
2022/01/03 00:33:28;;;;;;;104.90;58.40;;;;;;;;;;4396389;32;20229;-52
2022/01/03 00:35:59;;;;;;;111.97;59.47;;;;;;;;;;4397562;32;20312;-52
2022/01/03 00:38:32;;;;;;;97.67;51.90;;;;;;;;;;4398321;32;20311;-52
2022/01/03 00:40:59;;;;;;;79.93;47.53;;;;;;;;;;4385220;32;20339;-52
2022/01/03 00:43:26;;;;;;;84.17;47.10;;;;;;;;;;4396831;32;20201;-51
2022/01/03 00:45:56;;;;;;;91.17;49.77;;;;;;;;;;4397303;32;20229;-53
2022/01/03 00:48:22;;;;;;;91.00;49.67;;;;;;;;;;4394787;32;20333;-54
2022/01/03 00:50:49;;;;;;;93.57;49.37;;;;;;;;;;4395518;32;20296;-53
2022/01/03 00:53:16;;;;;;;95.27;52.00;;;;;;;;;;4397143;32;20296;-53
2022/01/03 00:56:01;;;;;;;82.40;49.47;;;;;;;;;;4396614;32;20585;-53
2022/01/03 00:58:30;;;;;;;101.87;53.63;;;;;;;;;;4396763;32;20233;-53
2022/01/03 01:00:57;;;;;;;89.40;49.70;;;;;;;;;;4394790;32;20490;-52
2022/01/03 01:03:32;;;;;;;95.73;51.07;;;;;;;;;;4396891;32;20281;-51
2022/01/03 01:06:00;;;;;;;94.03;47.33;;;;;;;;;;4398593;32;20607;-52
2022/01/03 01:08:27;;;;;;;94.97;51.40;;;;;;;;;;4396150;32;20320;-52
2022/01/03 01:10:59;;;;;;;92.63;49.13;;;;;;;;;;4395096;32;20400;-52
2022/01/03 01:13:24;;;;;;;90.43;46.13;;;;;;;;;;4396411;32;20228;-52
2022/01/03 01:15:50;;;;;;;100.07;51.03;;;;;;;;;;4396254;32;20583;-52
2022/01/03 01:18:16;;;;;;;110.63;56.63;;;;;;;;;;4398290;32;20306;-54
2022/01/03 01:20:41;;;;;;;111.90;52.17;;;;;;;;;;4386668;32;20233;-52
2022/01/03 01:23:09;;;;;;;105.60;55.97;;;;;;;;;;4388836;32;20645;-54
2022/01/03 01:28:05;;;;;;;94.00;48.57;;;;;;;;;;4394940;32;20243;-52
2022/01/03 01:30:33;;;;;;;90.83;49.37;;;;;;;;;;4389405;32;20317;-51
2022/01/03 01:33:03;;;;;;;100.43;52.83;;;;;;;;;;4403555;32;20217;-51
2022/01/03 01:35:48;;;;;;;108.87;56.13;;;;;;;;;;4403932;32;20285;-51
2022/01/03 01:38:18;;;;;;;91.20;52.40;;;;;;;;;;4403725;32;20379;-51
2022/01/03 01:40:50;;;;;;;95.27;50.43;;;;;;;;;;4403087;32;20237;-51
2022/01/03 01:43:25;;;;;;;83.70;47.87;;;;;;;;;;4403426;32;20209;-51
2022/01/03 01:45:51;;;;;;;80.77;47.47;;;;;;;;;;4404162;32;20672;-51
2022/01/03 01:48:19;;;;;;;89.93;47.80;;;;;;;;;;4403309;32;20224;-50
2022/01/03 01:50:50;;;;;;;87.93;48.47;;;;;;;;;;4403145;32;20251;-51
2022/01/03 01:53:22;;;;;;;86.07;48.00;;;;;;;;;;4404070;32;20209;-51
2022/01/03 01:55:51;;;;;;;78.73;44.90;;;;;;;;;;4403793;32;20324;-52
2022/01/03 01:58:40;;;;;;;83.97;45.53;;;;;;;;;;4404089;32;20209;-52
2022/01/03 02:01:07;;;;;;;74.17;40.93;;;;;;;;;;4404210;32;20260;-52
2022/01/03 02:03:54;;;;;;;74.57;41.33;;;;;;;;;;4389936;32;20628;-52
2022/01/03 02:06:39;;;;;;;84.63;46.47;;;;;;;;;;4388075;32;20717;-52
2022/01/03 02:09:09;;;;;;;86.63;47.00;;;;;;;;;;4388702;32;20233;-51
2022/01/03 02:11:47;;;;;;;97.77;49.97;;;;;;;;;;4403599;32;20229;-51
2022/01/03 02:14:13;;;;;;;98.13;55.90;;;;;;;;;;4402790;32;20289;-51
2022/01/03 02:16:39;;;;;;;115.53;58.80;;;;;;;;;;4403238;32;20248;-51
2022/01/03 02:19:04;;;;;;;103.63;52.17;;;;;;;;;;4403993;32;20687;-52
2022/01/03 02:21:31;;;;;;;97.83;48.23;;;;;;;;;;4402161;32;20727;-53
2022/01/03 02:23:56;;;;;;;86.43;45.67;;;;;;;;;;4388713;32;20406;-54
2022/01/03 02:26:22;;;;;;;86.67;42.80;;;;;;;;;;4389387;32;20569;-54
2022/01/03 02:28:48;;;;;;;106.30;48.97;;;;;;;;;;4389733;32;20308;-54
2022/01/03 02:31:17;;;;;;;96.10;53.10;;;;;;;;;;4403133;32;20736;-53
2022/01/03 02:33:43;;;;;;;104.03;54.30;;;;;;;;;;4403238;32;20244;-53
2022/01/03 02:36:08;;;;;;;102.73;53.50;;;;;;;;;;4388410;32;20257;-51
2022/01/03 02:38:35;;;;;;;107.87;57.23;;;;;;;;;;4402038;32;20389;-52
2022/01/03 02:41:00;;;;;;;98.80;56.03;;;;;;;;;;4402882;32;20226;-51
2022/01/03 02:43:26;;;;;;;104.67;56.20;;;;;;;;;;4403667;32;20306;-51
2022/01/03 02:45:51;;;;;;;98.30;57.00;;;;;;;;;;4388867;32;20251;-51
2022/01/03 02:48:21;;;;;;;110.87;62.60;;;;;;;;;;4402920;32;20690;-52
2022/01/03 02:50:46;;;;;;;133.03;64.13;;;;;;;;;;4389194;32;20253;-51
2022/01/03 02:53:13;;;;;;;136.27;63.83;;;;;;;;;;4402623;32;20720;-53
2022/01/03 02:55:38;;;;;;;145.70;74.87;;;;;;;;;;4402810;32;20297;-52
2022/01/03 02:58:07;;;;;;;130.50;62.00;;;;;;;;;;4403045;32;20242;-52
2022/01/03 03:00:36;;;;;;;115.87;59.73;;;;;;;;;;4402559;32;20248;-52
2022/01/03 03:03:03;;;;;;;118.70;61.83;;;;;;;;;;4402525;32;20351;-54
2022/01/03 03:05:29;;;;;;;97.13;51.93;;;;;;;;;;4388520;32;20582;-53
2022/01/03 03:07:55;;;;;;;99.93;47.83;;;;;;;;;;4402810;32;20319;-53
2022/01/03 03:10:23;;;;;;;99.70;48.43;;;;;;;;;;4402532;32;20692;-52
2022/01/03 03:12:49;;;;;;;91.83;42.17;;;;;;;;;;4403020;32;20209;-52
2022/01/03 03:15:16;;;;;;;78.27;37.03;;;;;;;;;;4402550;32;20247;-53
2022/01/03 03:17:42;;;;;;;79.17;39.30;;;;;;;;;;4402392;32;20233;-53
2022/01/03 03:20:11;;;;;;;80.43;39.90;;;;;;;;;;4388125;32;20248;-51
2022/01/03 03:22:37;;;;;;;91.47;41.63;;;;;;;;;;4387630;32;20289;-52
2022/01/03 03:25:02;;;;;;;96.80;45.43;;;;;;;;;;4389500;32;20240;-51
2022/01/03 03:27:28;;;;;;;89.37;40.83;;;;;;;;;;4403026;32;20320;-51
2022/01/03 03:29:53;;;;;;;100.53;43.30;;;;;;;;;;4402679;32;20364;-52
2022/01/03 03:32:19;;;;;;;83.40;35.17;;;;;;;;;;4389351;32;20243;-51
2022/01/03 03:34:47;;;;;;;103.90;40.07;;;;;;;;;;4402314;32;20249;-52
2022/01/03 03:37:13;;;;;;;107.87;43.00;;;;;;;;;;4403084;32;20302;-51
2022/01/03 03:39:39;;;;;;;87.43;40.53;;;;;;;;;;4405234;32;20298;-51
2022/01/03 03:42:06;;;;;;;86.67;38.00;;;;;;;;;;4405986;32;20234;-52
2022/01/03 03:44:32;;;;;;;87.90;38.23;;;;;;;;;;4405316;32;20213;-51
2022/01/03 03:46:57;;;;;;;73.40;34.43;;;;;;;;;;4405141;32;20252;-51
2022/01/03 03:49:23;;;;;;;77.10;34.80;;;;;;;;;;4404476;32;20308;-52
2022/01/03 03:51:48;;;;;;;57.53;30.53;;;;;;;;;;4405256;32;20256;-51
2022/01/03 03:54:14;;;;;;;69.67;30.60;;;;;;;;;;4405347;32;20713;-52
2022/01/03 03:56:39;;;;;;;75.43;31.03;;;;;;;;;;4405162;32;20229;-51
2022/01/03 03:59:05;;;;;;;80.53;35.97;;;;;;;;;;4405928;32;20795;-52
2022/01/03 04:01:30;;;;;;;102.37;43.57;;;;;;;;;;4391262;32;20332;-51
2022/01/03 04:03:56;;;;;;;106.57;48.50;;;;;;;;;;4405117;32;20236;-51
2022/01/03 04:06:21;;;;;;;118.30;49.27;;;;;;;;;;4404698;32;20244;-52
2022/01/03 04:08:47;;;;;;;124.23;49.03;;;;;;;;;;4404302;32;20311;-51
2022/01/03 04:11:15;;;;;;;126.30;51.10;;;;;;;;;;4405028;32;20397;-51
2022/01/03 04:13:41;;;;;;;113.67;50.27;;;;;;;;;;4405248;32;20273;-53
2022/01/03 04:16:07;;;;;;;131.63;58.10;;;;;;;;;;4404664;32;20256;-51
2022/01/03 04:18:33;;;;;;;138.40;55.37;;;;;;;;;;4405011;32;20765;-53
2022/01/03 04:20:59;;;;;;;145.20;58.60;;;;;;;;;;4403925;32;20346;-53
2022/01/03 04:23:25;;;;;;;110.03;53.63;;;;;;;;;;4405071;32;20284;-52
2022/01/03 04:25:53;;;;;;;134.80;53.87;;;;;;;;;;4404703;32;20217;-52
2022/01/03 04:28:20;;;;;;;109.23;51.67;;;;;;;;;;4404858;32;20294;-51
2022/01/03 04:30:46;;;;;;;110.30;49.63;;;;;;;;;;4404619;32;20355;-51
2022/01/03 04:33:12;;;;;;;107.17;49.37;;;;;;;;;;4405198;32;20281;-51
2022/01/03 04:35:38;;;;;;;114.97;50.30;;;;;;;;;;4404819;32;20255;-52
2022/01/03 04:38:04;;;;;;;126.57;50.47;;;;;;;;;;4404242;32;20318;-51
2022/01/03 04:40:29;;;;;;;102.07;46.33;;;;;;;;;;4404652;32;20237;-53
2022/01/03 04:42:55;;;;;;;111.00;49.30;;;;;;;;;;4404823;32;20315;-54
2022/01/03 04:45:21;;;;;;;110.50;50.80;;;;;;;;;;4404558;32;20208;-52
2022/01/03 04:47:46;;;;;;;121.53;50.50;;;;;;;;;;4403863;32;20604;-52
2022/01/03 04:50:12;;;;;;;108.47;49.80;;;;;;;;;;4403722;32;20226;-52
2022/01/03 04:52:38;;;;;;;108.87;52.03;;;;;;;;;;4404370;32;20473;-54
2022/01/03 04:55:04;;;;;;;110.83;51.40;;;;;;;;;;4404444;32;20236;-52
2022/01/03 04:57:29;;;;;;;93.60;46.43;;;;;;;;;;4404522;32;20259;-52
2022/01/03 04:59:55;;;;;;;110.70;52.53;;;;;;;;;;4389955;32;20403;-52
2022/01/03 05:02:20;;;;;;;121.77;58.33;;;;;;;;;;4404184;32;20233;-52
2022/01/03 05:04:46;;;;;;;111.97;55.43;;;;;;;;;;4404374;32;20284;-51
2022/01/03 05:07:11;;;;;;;107.13;50.97;;;;;;;;;;4404220;32;20229;-50
2022/01/03 05:09:37;;;;;;;107.13;50.90;;;;;;;;;;4404577;32;20400;-51
2022/01/03 05:12:03;;;;;;;112.93;51.13;;;;;;;;;;4404350;32;20241;-51
2022/01/03 05:14:28;;;;;;;118.93;54.50;;;;;;;;;;4404375;32;20334;-52
2022/01/03 05:16:53;;;;;;;119.77;51.33;;;;;;;;;;4403958;32;20308;-51
2022/01/03 05:19:20;;;;;;;105.83;40.10;;;;;;;;;;4403837;32;20361;-51
2022/01/03 05:21:48;;;;;;;112.50;43.43;;;;;;;;;;4406369;32;20634;-52
2022/01/03 05:24:14;;;;;;;123.37;50.40;;;;;;;;;;4419448;32;20746;-52
2022/01/03 05:26:39;;;;;;;140.33;46.67;;;;;;;;;;4405405;32;20231;-52
2022/01/03 05:29:05;;;;;;;121.50;48.73;;;;;;;;;;4405392;32;20314;-52
2022/01/03 05:31:30;;;;;;;137.00;51.17;;;;;;;;;;4391591;32;20248;-52
2022/01/03 05:33:56;;;;;;;114.00;47.37;;;;;;;;;;4404459;32;20284;-52
2022/01/03 05:36:21;;;;;;;109.97;47.47;;;;;;;;;;4404197;32;20317;-52
2022/01/03 05:38:47;;;;;;;121.03;47.70;;;;;;;;;;4411818;32;20562;-52
2022/01/03 05:41:12;;;;;;;118.77;48.53;;;;;;;;;;4407451;32;20515;-52
2022/01/03 05:43:38;;;;;;;127.53;48.67;;;;;;;;;;4404040;32;20356;-53
2022/01/03 05:46:04;;;;;;;120.73;49.57;;;;;;;;;;4403223;32;20282;-51
2022/01/03 05:48:29;;;;;;;115.47;48.53;;;;;;;;;;4403460;32;20304;-52
2022/01/03 05:50:55;;;;;;;123.10;52.60;;;;;;;;;;4403771;32;20261;-52
2022/01/03 05:53:20;;;;;;;110.27;49.30;;;;;;;;;;4403642;32;20222;-52
2022/01/03 05:55:46;;;;;;;127.83;53.90;;;;;;;;;;4404365;32;20247;-52
2022/01/03 05:58:13;;;;;;;124.67;51.27;;;;;;;;;;4389237;32;20318;-52
2022/01/03 06:00:39;;;;;;;120.13;50.20;;;;;;;;;;4403579;32;20252;-52
2022/01/03 06:03:05;;;;;;;120.33;50.03;;;;;;;;;;4403016;32;20280;-51
2022/01/03 06:08:02;;;;;;;147.17;54.83;;;;;;;;;;4403524;32;20236;-52
2022/01/03 06:10:28;;;;;;;100.60;45.40;;;;;;;;;;4403153;32;20283;-52
2022/01/03 06:12:54;;;;;;;103.63;43.30;;;;;;;;;;4403714;32;20288;-53
2022/01/03 06:15:24;;;;;;;121.43;50.17;;;;;;;;;;4401267;32;20577;-52
2022/01/03 06:17:51;;;;;;;108.57;49.70;;;;;;;;;;4403397;32;20536;-52
2022/01/03 06:20:17;;;;;;;78.10;37.47;;;;;;;;;;4403001;32;20388;-54
2022/01/03 06:22:43;;;;;;;81.03;36.03;;;;;;;;;;4403447;32;20212;-52
2022/01/03 06:25:10;;;;;;;77.83;33.93;;;;;;;;;;4403257;32;20306;-52
2022/01/03 06:27:36;;;;;;;84.67;39.40;;;;;;;;;;4402990;32;20241;-51
2022/01/03 06:30:04;;;;;;;97.47;42.43;;;;;;;;;;4388312;32;20272;-52
2022/01/03 06:32:29;;;;;;;84.67;42.33;;;;;;;;;;4403511;32;20669;-52
2022/01/03 06:34:55;;;;;;;92.33;38.27;;;;;;;;;;4403001;32;20417;-51
2022/01/03 06:37:21;;;;;;;104.03;40.90;;;;;;;;;;4400923;32;20413;-52
2022/01/03 06:39:47;;;;;;;131.27;46.50;;;;;;;;;;4402945;32;20300;-53
2022/01/03 06:42:12;;;;;;;107.20;43.03;;;;;;;;;;4402933;32;20248;-52
2022/01/03 06:44:38;;;;;;;126.60;44.60;;;;;;;;;;4403509;32;20614;-51
2022/01/03 06:47:03;;;;;;;92.07;39.73;;;;;;;;;;4403824;32;20349;-52
2022/01/03 06:49:29;;;;;;;83.57;38.73;;;;;;;;;;4402720;32;20299;-52
2022/01/03 06:51:54;;;;;;;93.90;41.90;;;;;;;;;;4394334;32;20284;-51
2022/01/03 06:54:19;;;;;;;95.23;45.33;;;;;;;;;;4395360;32;20296;-53
2022/01/03 06:56:45;;;;;;;128.63;56.53;;;;;;;;;;4394990;32;20260;-51
2022/01/03 06:59:10;;;;;;;148.83;63.67;;;;;;;;;;4395619;32;20354;-52
2022/01/03 07:01:37;;;;;;;162.33;69.20;;;;;;;;;;4402645;32;20261;-52
2022/01/03 07:04:02;;;;;;;193.47;86.57;;;;;;;;;;4402560;32;20732;-53
2022/01/03 07:06:28;;;;;;;156.97;66.33;;;;;;;;;;4402978;32;20229;-52
2022/01/03 07:08:53;;;;;;;176.33;72.47;;;;;;;;;;4389163;32;20678;-52
2022/01/03 07:11:19;;;;;;;160.07;75.77;;;;;;;;;;4402003;32;20259;-51
2022/01/03 07:13:48;;;;;;;145.37;66.27;;;;;;;;;;4402114;32;20316;-52
2022/01/03 07:19:00;;;;;;;176.90;72.23;;;;;;;;;;4402977;32;20706;-52
2022/01/03 07:21:27;;;;;;;81.03;40.37;;;;;;;;;;4386331;32;20267;-52
2022/01/03 07:23:53;;;;;;;179.70;79.37;;;;;;;;;;4374973;32;20244;-53
2022/01/03 07:26:18;;;;;;;168.57;77.97;;;;;;;;;;4398628;32;20236;-53
2022/01/03 07:28:44;;;;;;;168.27;79.70;;;;;;;;;;4402791;32;20333;-53
2022/01/03 07:31:09;;;;;;;322.90;141.37;;;;;;;;;;4402553;32;20225;-53
2022/01/03 07:33:35;;;;;;;245.37;106.87;;;;;;;;;;4402801;32;20311;-53
2022/01/03 07:36:01;;;;;;;227.80;94.73;;;;;;;;;;4402994;32;20600;-52
2022/01/03 07:38:27;;;;;;;240.40;95.97;;;;;;;;;;4402984;32;20280;-55
2022/01/03 07:40:53;;;;;;;263.90;121.20;;;;;;;;;;4402519;32;20263;-53
2022/01/03 07:43:18;;;;;;;218.77;94.60;;;;;;;;;;4388957;32;20661;-53
2022/01/03 07:45:43;;;;;;;206.47;92.53;;;;;;;;;;4401896;32;20281;-51
2022/01/03 07:48:09;;;;;;;231.00;99.60;;;;;;;;;;4398930;32;20331;-53
2022/01/03 07:50:34;;;;;;;191.80;80.80;;;;;;;;;;4402755;32;20345;-53
2022/01/03 07:53:00;;;;;;;179.90;80.77;;;;;;;;;;4402364;32;20292;-53
2022/01/03 07:55:26;;;;;;;116.17;50.03;;;;;;;;;;4401808;32;20213;-53
2022/01/03 07:57:53;;;;;;;97.77;46.50;;;;;;;;;;4401721;32;20629;-53
2022/01/03 08:00:19;;;;;;;102.47;42.27;;;;;;;;;;4388112;32;20267;-53
2022/01/03 08:02:44;;;;;;;87.13;39.90;;;;;;;;;;4402908;32;20225;-51
2022/01/03 08:05:13;;;;;;;79.57;38.93;;;;;;;;;;4401711;32;20603;-50
2022/01/03 08:07:39;;;;;;;79.20;37.13;;;;;;;;;;4401584;32;20419;-52
2022/01/03 08:10:07;;;;;;;101.13;46.67;;;;;;;;;;4385870;32;20691;-54
2022/01/03 08:12:33;;;;;;;81.37;38.87;;;;;;;;;;4386525;32;20234;-52
2022/01/03 08:14:59;;;;;;;88.77;39.00;;;;;;;;;;4400865;32;20240;-51
2022/01/03 08:17:25;;;;;;;77.37;39.07;;;;;;;;;;4401670;32;20248;-51
2022/01/03 08:19:51;;;;;;;82.10;39.77;;;;;;;;;;4400524;32;20247;-51
2022/01/03 08:22:17;;;;;;;139.33;65.30;;;;;;;;;;4401703;32;20241;-51
2022/01/03 08:24:46;;;;;;;110.13;56.10;;;;;;;;;;4404379;32;20315;-52
2022/01/03 08:27:11;;;;;;;136.53;59.83;;;;;;;;;;4404771;32;20242;-50
2022/01/03 08:29:37;;;;;;;133.00;67.20;;;;;;;;;;4403723;32;20719;-52
2022/01/03 08:32:03;;;;;;;118.27;53.53;;;;;;;;;;4404806;32;20229;-53
2022/01/03 08:34:28;;;;;;;124.40;55.60;;;;;;;;;;4390736;32;20431;-51
2022/01/03 08:36:54;;;;;;;115.17;57.97;;;;;;;;;;4403977;32;20236;-53
2022/01/03 08:39:19;;;;;;;136.60;64.67;;;;;;;;;;4389968;32;20288;-51
2022/01/03 08:41:45;;;;;;;153.63;72.20;;;;;;;;;;4390789;32;20253;-53
2022/01/03 08:44:11;;;;;;;175.70;85.43;;;;;;;;;;4390741;32;20391;-53
2022/01/03 08:46:36;;;;;;;216.03;92.67;;;;;;;;;;4404124;32;20237;-52
2022/01/03 08:49:03;;;;;;;243.20;105.77;;;;;;;;;;4390948;32;20801;-51
2022/01/03 08:51:28;;;;;;;235.63;109.83;;;;;;;;;;4403389;32;20279;-51
2022/01/03 08:53:54;;;;;;;270.50;116.30;;;;;;;;;;4390375;32;20305;-51
2022/01/03 08:56:20;;;;;;;268.70;120.83;;;;;;;;;;4390089;32;20261;-52
2022/01/03 08:58:45;;;;;;;239.47;115.93;;;;;;;;;;4400748;32;20279;-53
2022/01/03 09:01:11;;;;;;;256.73;119.83;;;;;;;;;;4404413;32;20265;-52
2022/01/03 09:03:37;;;;;;;258.40;119.77;;;;;;;;;;4404220;32;20218;-52
2022/01/03 09:06:03;;;;;;;245.60;111.37;;;;;;;;;;4403108;32;20331;-52
2022/01/03 09:08:28;;;;;;;245.93;117.17;;;;;;;;;;4403907;32;20264;-52
2022/01/03 09:10:55;;;;;;;277.30;126.20;;;;;;;;;;4403815;32;20664;-52
2022/01/03 09:13:21;;;;;;;247.67;122.20;;;;;;;;;;4404314;32;20229;-52
2022/01/03 09:15:48;;;;;;;244.00;120.73;;;;;;;;;;4403884;32;20640;-52
2022/01/03 09:18:18;;;;;;;204.40;106.73;;;;;;;;;;4402855;32;20720;-52
2022/01/03 09:20:44;;;;;;;181.33;91.17;;;;;;;;;;4403643;32;20226;-52
2022/01/03 09:23:17;;;;;;;187.93;91.20;;;;;;;;;;4403419;32;20812;-54
2022/01/03 09:30:55;;;;;;;232.27;116.90;;;;;;;;;;4403700;32;20699;-53
2022/01/03 09:33:20;;;;;;;198.63;103.03;;;;;;;;;;4403283;32;20662;-52
2022/01/03 09:35:46;;;;;;;170.13;89.17;;;;;;;;;;4403637;32;20363;-52
2022/01/03 09:38:12;;;;;;;189.90;98.93;;;;;;;;;;4403160;32;20589;-52
2022/01/03 09:40:39;;;;;;;180.10;92.50;;;;;;;;;;4389693;32;20245;-53
2022/01/03 09:43:08;;;;;;;197.63;92.57;;;;;;;;;;4388565;32;20300;-52
2022/01/03 09:45:34;;;;;;;119.77;57.97;;;;;;;;;;4403529;32;20297;-53
2022/01/03 09:48:02;;;;;;;119.23;61.87;;;;;;;;;;4404123;32;20283;-55
2022/01/03 09:50:31;;;;;;;119.73;60.20;;;;;;;;;;4401998;32;20683;-53
2022/01/03 09:52:57;;;;;;;106.27;52.00;;;;;;;;;;4401562;32;20278;-51
2022/01/03 09:55:24;;;;;;;75.80;40.47;;;;;;;;;;4401389;32;20744;-53
2022/01/03 09:57:50;;;;;;;56.03;31.87;;;;;;;;;;4400251;32;20339;-52
2022/01/03 10:00:22;;;;;;;51.50;28.93;;;;;;;;;;4399452;32;20289;-53
2022/01/03 10:02:48;;;;;;;46.67;27.27;;;;;;;;;;4386539;32;20746;-52
2022/01/03 10:05:14;;;;;;;56.67;28.00;;;;;;;;;;4387544;32;20328;-52
2022/01/03 10:07:40;;;;;;;42.40;25.77;;;;;;;;;;4401004;32;20307;-51
2022/01/03 10:10:07;;;;;;;38.80;24.73;;;;;;;;;;4399280;32;20240;-52
2022/01/03 10:12:34;;;;;;;40.33;23.83;;;;;;;;;;4396925;32;20339;-53
2022/01/03 10:15:00;;;;;;;51.37;28.80;;;;;;;;;;4393296;32;20279;-53
2022/01/03 10:17:25;;;;;;;39.13;23.90;;;;;;;;;;4396591;32;20225;-52
2022/01/03 10:20:02;;;;;;;41.23;23.80;;;;;;;;;;4395665;32;20356;-52
2022/01/03 10:22:31;;;;;;;57.40;28.97;;;;;;;;;;4401926;32;20221;-54
2022/01/03 10:24:58;;;;;;;51.20;27.73;;;;;;;;;;4402607;32;20297;-52
2022/01/03 10:27:43;;;;;;;29.13;19.87;;;;;;;;;;4401343;32;20525;-53
2022/01/03 10:30:09;;;;;;;41.10;21.17;;;;;;;;;;4400528;32;20277;-52
2022/01/03 10:32:35;;;;;;;39.57;22.83;;;;;;;;;;4386593;32;20363;-54
2022/01/03 10:35:14;;;;;;;39.93;24.53;;;;;;;;;;4400870;32;20594;-54
2022/01/03 10:37:40;;;;;;;49.53;25.93;;;;;;;;;;4399578;32;20642;-54
2022/01/03 10:40:16;;;;;;;48.17;26.87;;;;;;;;;;4385688;32;20259;-55
2022/01/03 10:42:41;;;;;;;49.07;29.57;;;;;;;;;;4401008;32;20217;-52
2022/01/03 10:45:07;;;;;;;53.10;31.07;;;;;;;;;;4402516;32;20287;-51
2022/01/03 10:47:34;;;;;;;81.40;47.40;;;;;;;;;;4387456;32;20595;-51
2022/01/03 10:50:12;;;;;;;55.77;32.67;;;;;;;;;;4402823;32;20722;-52
2022/01/03 10:52:41;;;;;;;56.37;32.80;;;;;;;;;;4401147;32;20991;-52
2022/01/03 10:55:17;;;;;;;61.70;34.50;;;;;;;;;;4393583;32;20244;-52
2022/01/03 10:57:54;;;;;;;54.00;34.40;;;;;;;;;;4373964;32;20259;-51
2022/01/03 11:00:20;;;;;;;59.00;33.83;;;;;;;;;;4393443;32;20375;-52
2022/01/03 11:03:34;;;;;;;59.63;34.37;;;;;;;;;;4398772;32;20230;-52
2022/01/03 11:05:59;;;;;;;61.80;34.30;;;;;;;;;;4396188;32;20229;-54
2022/01/03 11:11:12;;;;;;;60.53;33.93;;;;;;;;;;4390779;32;20256;-52
2022/01/03 11:13:48;;;;;;;60.57;33.73;;;;;;;;;;4402252;32;20297;-53
2022/01/03 11:16:14;;;;;;;85.33;47.20;;;;;;;;;;4402725;32;20323;-53
2022/01/03 11:18:46;;;;;;;62.13;36.97;;;;;;;;;;4400495;32;20334;-54
2022/01/03 11:21:18;;;;;;;49.30;32.27;;;;;;;;;;4387205;32;20578;-54
2022/01/03 11:24:02;;;;;;;56.47;33.87;;;;;;;;;;4390888;32;20834;-54
2022/01/03 11:26:35;;;;;;;86.57;48.73;;;;;;;;;;4385217;32;20722;-54
2022/01/03 11:29:02;;;;;;;52.57;35.57;;;;;;;;;;4397277;32;20228;-54
2022/01/03 11:31:33;;;;;;;66.37;32.97;;;;;;;;;;4393842;32;20226;-53
2022/01/03 11:33:59;;;;;;;58.33;35.73;;;;;;;;;;4401197;32;20259;-53
2022/01/03 11:36:25;;;;;;;53.47;34.03;;;;;;;;;;4401924;32;20260;-53
2022/01/03 11:38:53;;;;;;;59.77;36.00;;;;;;;;;;4400603;32;20636;-54
2022/01/03 11:41:20;;;;;;;56.67;33.43;;;;;;;;;;4386011;32;20238;-52
2022/01/03 11:43:45;;;;;;;50.37;29.23;;;;;;;;;;4399052;32;20283;-54
2022/01/03 11:46:12;;;;;;;50.87;31.63;;;;;;;;;;4389927;32;20230;-52
2022/01/03 11:48:37;;;;;;;48.87;27.80;;;;;;;;;;4392811;32;20627;-53
2022/01/03 11:51:06;;;;;;;50.97;30.67;;;;;;;;;;4386910;32;20293;-54
2022/01/03 11:53:37;;;;;;;51.03;31.90;;;;;;;;;;4394163;32;20213;-55
2022/01/03 11:56:05;;;;;;;59.80;34.07;;;;;;;;;;4401180;32;20263;-53
2022/01/03 12:04:33;;;;;;;86.20;47.80;;;;;;;;;;4403887;32;20615;-53
2022/01/03 12:07:09;;;;;;;58.47;35.47;;;;;;;;;;4390260;32;20307;-53
2022/01/03 12:09:37;;;;;;;67.77;39.97;;;;;;;;;;4404207;32;20698;-53
2022/01/03 12:12:05;;;;;;;76.20;44.07;;;;;;;;;;4391276;32;20597;-53
2022/01/03 12:14:45;;;;;;;52.03;31.70;;;;;;;;;;4388979;32;20371;-53
2022/01/03 12:17:12;;;;;;;63.53;30.83;;;;;;;;;;4388729;32;20268;-53
2022/01/03 12:19:42;;;;;;;53.07;30.33;;;;;;;;;;4404241;32;20240;-53
2022/01/03 12:22:09;;;;;;;52.77;28.07;;;;;;;;;;4402543;32;20233;-53
2022/01/03 12:24:38;;;;;;;46.97;25.43;;;;;;;;;;4402605;32;20244;-53
2022/01/03 12:27:09;;;;;;;48.43;26.83;;;;;;;;;;4403675;32;20320;-53
2022/01/03 12:29:55;;;;;;;29.73;18.43;;;;;;;;;;4402374;32;20233;-53
2022/01/03 12:32:29;;;;;;;31.23;18.87;;;;;;;;;;4401655;32;20264;-54
2022/01/03 12:35:15;;;;;;;41.10;23.50;;;;;;;;;;4400606;32;20251;-54
2022/01/03 12:37:44;;;;;;;39.87;21.87;;;;;;;;;;4400747;32;20290;-54
2022/01/03 12:40:32;;;;;;;40.83;25.10;;;;;;;;;;4401527;32;20328;-53
2022/01/03 12:42:58;;;;;;;43.83;25.67;;;;;;;;;;4402830;32;20244;-52
2022/01/03 12:45:30;;;;;;;46.47;26.07;;;;;;;;;;4402365;32;20329;-52
2022/01/03 12:48:09;;;;;;;41.47;22.70;;;;;;;;;;4403108;32;20233;-52
2022/01/03 12:51:00;;;;;;;34.33;21.50;;;;;;;;;;4400694;32;20213;-53
2022/01/03 12:53:26;;;;;;;36.33;21.43;;;;;;;;;;4391209;32;20387;-52
2022/01/03 12:56:02;;;;;;;32.53;20.33;;;;;;;;;;4392639;32;20379;-52
2022/01/03 12:58:27;;;;;;;29.40;18.57;;;;;;;;;;4388595;32;20221;-53
2022/01/03 13:00:56;;;;;;;44.03;22.37;;;;;;;;;;4402885;32;20585;-53
2022/01/03 13:03:27;;;;;;;36.63;22.07;;;;;;;;;;4403636;32;20225;-52
2022/01/03 13:06:16;;;;;;;42.93;23.57;;;;;;;;;;4385553;32;20340;-53
2022/01/03 13:08:52;;;;;;;46.53;27.17;;;;;;;;;;4401541;32;20245;-53
2022/01/03 13:11:23;;;;;;;45.77;26.17;;;;;;;;;;4403811;32;20345;-53
2022/01/03 13:13:50;;;;;;;50.33;26.90;;;;;;;;;;4403376;32;20294;-52
2022/01/03 13:16:20;;;;;;;55.43;30.33;;;;;;;;;;4389398;32;20264;-53
2022/01/03 13:18:50;;;;;;;53.90;29.00;;;;;;;;;;4403257;32;20213;-51
2022/01/03 13:21:18;;;;;;;64.77;37.70;;;;;;;;;;4389951;32;20671;-51
2022/01/03 13:23:51;;;;;;;66.37;36.87;;;;;;;;;;4401170;32;20312;-52
2022/01/03 13:26:17;;;;;;;65.67;38.57;;;;;;;;;;4401608;32;20313;-51
2022/01/03 13:28:47;;;;;;;62.23;34.93;;;;;;;;;;4400340;32;20373;-51
2022/01/03 13:31:13;;;;;;;53.23;31.87;;;;;;;;;;4397324;32;20256;-51
2022/01/03 13:33:38;;;;;;;57.37;30.80;;;;;;;;;;4401110;32;20296;-53
2022/01/03 13:36:05;;;;;;;54.17;33.47;;;;;;;;;;4401742;32;20233;-52
2022/01/03 13:38:31;;;;;;;48.07;27.30;;;;;;;;;;4401163;32;20305;-52
2022/01/03 13:41:13;;;;;;;45.20;26.97;;;;;;;;;;4402094;32;20405;-52
2022/01/03 13:43:42;;;;;;;59.27;32.73;;;;;;;;;;4403075;32;20240;-52
2022/01/03 13:51:19;;;;;;;120.67;60.87;;;;;;;;;;4391548;32;20255;-52
2022/01/03 13:53:53;;;;;;;137.03;65.70;;;;;;;;;;4402816;32;20248;-53
2022/01/03 13:56:19;;;;;;;122.67;67.13;;;;;;;;;;4403426;32;20615;-52
2022/01/03 13:58:45;;;;;;;128.37;72.93;;;;;;;;;;4402607;32;20304;-52
2022/01/03 14:01:11;;;;;;;99.63;59.00;;;;;;;;;;4401597;32;20260;-52
2022/01/03 14:03:39;;;;;;;82.37;48.70;;;;;;;;;;4388127;32;20237;-53
2022/01/03 14:06:18;;;;;;;67.53;41.70;;;;;;;;;;4388728;32;20281;-54
2022/01/03 14:08:45;;;;;;;72.20;43.77;;;;;;;;;;4387982;32;20312;-53
2022/01/03 14:11:20;;;;;;;97.57;54.40;;;;;;;;;;4388748;32;20236;-53
2022/01/03 14:13:45;;;;;;;101.40;57.97;;;;;;;;;;4401831;32;20263;-53
2022/01/03 14:16:13;;;;;;;106.40;58.17;;;;;;;;;;4387171;32;20261;-53
2022/01/03 14:18:40;;;;;;;132.17;72.97;;;;;;;;;;4396214;32;20210;-54
2022/01/03 14:21:13;;;;;;;116.87;68.10;;;;;;;;;;4389810;32;20233;-53
2022/01/03 14:23:50;;;;;;;110.17;61.43;;;;;;;;;;4399393;32;20205;-53
2022/01/03 14:26:21;;;;;;;176.87;83.93;;;;;;;;;;4398798;32;20229;-53
2022/01/03 14:28:48;;;;;;;169.10;79.73;;;;;;;;;;4401497;32;20209;-53
2022/01/03 14:31:13;;;;;;;171.20;83.20;;;;;;;;;;4402397;32;20815;-53
2022/01/03 14:33:39;;;;;;;202.17;94.63;;;;;;;;;;4402141;32;20296;-54
2022/01/03 14:36:16;;;;;;;228.20;106.03;;;;;;;;;;4402192;32;20274;-54
2022/01/03 14:38:44;;;;;;;220.67;100.80;;;;;;;;;;4402222;32;20233;-53
2022/01/03 14:41:25;;;;;;;195.50;95.03;;;;;;;;;;4401939;32;20245;-53